createdAt,value
2022-08-17T00:00:00.030Z,18.30
2022-08-17T00:02:27.394Z,18.30
2022-08-17T00:04:55.485Z,18.30
2022-08-17T00:07:23.258Z,18.30
2022-08-17T00:09:50.297Z,18.30
2022-08-17T00:12:51.380Z,18.30
2022-08-17T00:15:05.290Z,18.10
2022-08-17T00:17:33.130Z,18.20
2022-08-17T00:20:00.369Z,18.30
2022-08-17T00:22:32.591Z,18.40
2022-08-17T00:25:03.965Z,18.40
2022-08-17T00:27:30.768Z,18.40
2022-08-17T00:29:57.574Z,18.40
2022-08-17T00:33:11.611Z,18.40
2022-08-17T00:35:14.451Z,18.40
2022-08-17T00:37:41.373Z,18.40
2022-08-17T00:40:11.081Z,18.40
2022-08-17T00:42:38.067Z,18.40
2022-08-17T00:45:07.532Z,18.10
2022-08-17T00:47:34.478Z,18.20
2022-08-17T00:50:01.706Z,18.10
2022-08-17T00:52:37.267Z,18.00
2022-08-17T00:55:05.575Z,18.00
2022-08-17T00:57:43.450Z,18.10
2022-08-17T01:00:19.608Z,18.10
2022-08-17T01:02:48.189Z,18.10
2022-08-17T01:05:18.862Z,18.10
2022-08-17T01:07:47.756Z,18.00
2022-08-17T01:10:58.881Z,18.00
2022-08-17T01:13:03.632Z,18.10
2022-08-17T01:15:34.464Z,18.00
2022-08-17T01:18:01.487Z,18.10
2022-08-17T01:20:28.425Z,18.00
2022-08-17T01:22:55.552Z,18.00
2022-08-17T01:25:22.636Z,18.00
2022-08-17T01:27:49.766Z,18.10
2022-08-17T01:30:58.136Z,18.10
2022-08-17T01:33:05.822Z,18.10
2022-08-17T01:35:32.671Z,18.00
2022-08-17T01:37:59.638Z,18.10
2022-08-17T01:40:35.197Z,18.10
2022-08-17T01:43:11.977Z,18.00
2022-08-17T01:45:46.405Z,18.10
2022-08-17T01:48:13.999Z,18.10
2022-08-17T01:50:44.467Z,18.10
2022-08-17T01:53:24.634Z,18.10
2022-08-17T01:55:58.791Z,18.10
2022-08-17T01:58:26.017Z,18.20
2022-08-17T02:00:59.525Z,18.20
2022-08-17T02:03:28.587Z,18.20
2022-08-17T02:05:55.754Z,18.30
2022-08-17T02:08:39.528Z,18.30
2022-08-17T02:11:17.829Z,18.30
2022-08-17T02:13:49.354Z,18.30
2022-08-17T02:16:24.808Z,18.20
2022-08-17T02:18:51.606Z,18.20
2022-08-17T02:21:18.662Z,18.30
2022-08-17T02:23:48.716Z,18.30
2022-08-17T02:26:23.936Z,18.30
2022-08-17T02:28:53.628Z,18.30
2022-08-17T02:31:21.334Z,18.20
2022-08-17T02:33:56.556Z,18.30
2022-08-17T02:36:30.150Z,18.30
2022-08-17T02:38:58.581Z,18.30
2022-08-17T02:41:25.610Z,18.20
2022-08-17T02:43:53.662Z,18.10
2022-08-17T02:46:20.526Z,18.20
2022-08-17T02:48:47.421Z,18.20
2022-08-17T02:51:14.568Z,18.10
2022-08-17T02:53:42.484Z,18.30
2022-08-17T02:56:09.471Z,18.20
2022-08-17T02:58:36.406Z,18.10
2022-08-17T03:01:09.269Z,18.20
2022-08-17T03:03:37.557Z,18.20
2022-08-17T03:06:05.014Z,18.30
2022-08-17T03:08:32.171Z,18.20
2022-08-17T03:10:59.609Z,18.30
2022-08-17T03:13:27.228Z,18.30
2022-08-17T03:15:54.067Z,18.40
2022-08-17T03:18:24.730Z,18.50
2022-08-17T03:20:54.927Z,18.40
2022-08-17T03:23:24.128Z,18.40
2022-08-17T03:25:52.993Z,18.50
2022-08-17T03:28:21.502Z,18.60
2022-08-17T03:30:48.451Z,18.70
2022-08-17T03:33:17.007Z,18.70
2022-08-17T03:35:44.095Z,18.80
2022-08-17T03:38:12.523Z,18.70
2022-08-17T03:40:58.542Z,18.70
2022-08-17T03:43:29.633Z,18.70
2022-08-17T03:46:28.691Z,18.80
2022-08-17T03:49:22.209Z,18.80
2022-08-17T03:52:07.888Z,18.80
2022-08-17T03:54:53.176Z,18.80
2022-08-17T03:57:20.481Z,18.90
2022-08-17T03:59:47.979Z,18.80
2022-08-17T04:02:21.417Z,18.90
2022-08-17T04:04:52.406Z,19.00
2022-08-17T04:07:21.715Z,19.10
2022-08-17T04:09:48.910Z,19.30
2022-08-17T04:12:17.917Z,19.50
2022-08-17T04:14:52.119Z,20.30
2022-08-17T04:17:26.501Z,21.10
2022-08-17T04:19:54.486Z,21.90
2022-08-17T04:22:32.622Z,22.80
2022-08-17T04:25:08.160Z,23.70
2022-08-17T04:27:35.487Z,24.50
2022-08-17T04:30:02.974Z,24.90
2022-08-17T04:33:04.351Z,25.30
2022-08-17T04:35:23.016Z,25.70
2022-08-17T04:37:50.108Z,25.30
2022-08-17T04:40:37.042Z,25.70
2022-08-17T04:43:10.041Z,26.10
2022-08-17T04:45:55.373Z,26.00
2022-08-17T04:48:27.851Z,26.50
2022-08-17T04:51:07.405Z,26.80
2022-08-17T04:53:34.276Z,27.00
2022-08-17T04:56:01.359Z,26.50
2022-08-17T04:58:28.473Z,26.60
2022-08-17T05:00:55.363Z,26.80
2022-08-17T05:03:22.226Z,27.10
2022-08-17T05:05:52.042Z,27.20
2022-08-17T05:08:20.379Z,26.80
2022-08-17T05:10:48.210Z,26.60
2022-08-17T05:13:19.160Z,26.80
2022-08-17T05:15:48.131Z,26.60
2022-08-17T05:18:16.665Z,27.10
2022-08-17T05:20:43.686Z,27.10
2022-08-17T05:23:13.882Z,27.40
2022-08-17T05:25:52.306Z,27.40
2022-08-17T05:28:24.250Z,27.60
2022-08-17T05:30:55.381Z,27.60
2022-08-17T05:33:34.258Z,27.80
2022-08-17T05:36:01.998Z,27.70
2022-08-17T05:38:30.077Z,27.80
2022-08-17T05:40:58.143Z,28.10
2022-08-17T05:43:31.179Z,28.30
2022-08-17T05:46:28.777Z,28.60
2022-08-17T05:49:16.461Z,28.90
2022-08-17T05:52:18.804Z,29.10
2022-08-17T05:54:52.713Z,29.20
2022-08-17T05:57:47.549Z,29.00
2022-08-17T06:00:31.280Z,29.00
2022-08-17T06:03:22.057Z,29.10
2022-08-17T06:06:08.993Z,29.00
2022-08-17T06:08:54.038Z,28.90
2022-08-17T06:11:36.943Z,29.00
2022-08-17T06:14:34.745Z,29.40
2022-08-17T06:17:10.304Z,29.70
2022-08-17T06:19:42.206Z,29.90
2022-08-17T06:22:13.480Z,30.00
2022-08-17T06:24:47.189Z,29.80
2022-08-17T06:27:25.232Z,29.90
2022-08-17T06:29:59.935Z,30.10
2022-08-17T06:32:26.887Z,29.90
2022-08-17T06:34:54.305Z,29.90
2022-08-17T06:37:31.120Z,30.00
2022-08-17T06:40:13.100Z,30.20
2022-08-17T06:43:05.903Z,30.60
2022-08-17T06:45:49.347Z,31.00
2022-08-17T06:48:24.855Z,31.00
2022-08-17T06:50:57.421Z,30.70
2022-08-17T06:53:31.694Z,31.10
2022-08-17T06:56:08.720Z,31.10
2022-08-17T06:58:38.883Z,31.40
2022-08-17T07:01:16.143Z,31.20
2022-08-17T07:03:54.861Z,30.90
2022-08-17T07:06:26.536Z,30.90
2022-08-17T07:09:11.844Z,31.10
2022-08-17T07:11:41.798Z,31.00
2022-08-17T07:14:29.715Z,31.00
2022-08-17T07:17:01.459Z,31.10
2022-08-17T07:19:32.049Z,30.80
2022-08-17T07:22:15.302Z,30.70
2022-08-17T07:24:47.957Z,30.70
2022-08-17T07:27:22.279Z,30.80
2022-08-17T07:29:57.885Z,31.00
2022-08-17T07:32:31.763Z,31.40
2022-08-17T07:35:16.792Z,31.70
2022-08-17T07:37:53.161Z,32.10
2022-08-17T07:40:22.968Z,31.70
2022-08-17T07:43:15.526Z,32.00
2022-08-17T07:46:30.716Z,31.70
2022-08-17T07:49:08.311Z,31.50
2022-08-17T07:51:44.154Z,31.90
2022-08-17T07:54:19.771Z,31.10
2022-08-17T07:57:00.039Z,30.80
2022-08-17T07:59:34.164Z,30.90
2022-08-17T08:02:02.431Z,31.10
2022-08-17T08:04:59.291Z,31.20
2022-08-17T08:07:39.302Z,31.10
2022-08-17T08:10:15.577Z,31.00
2022-08-17T08:12:47.909Z,30.60
2022-08-17T08:15:19.909Z,31.00
2022-08-17T08:17:50.097Z,31.20
2022-08-17T08:20:50.864Z,31.10
2022-08-17T08:23:30.680Z,31.20
2022-08-17T08:26:17.960Z,31.10
2022-08-17T08:29:01.918Z,30.50
2022-08-17T08:32:03.832Z,30.30
2022-08-17T08:35:01.397Z,30.70
2022-08-17T08:38:07.504Z,30.90
2022-08-17T08:40:43.375Z,31.10
2022-08-17T08:43:19.178Z,30.80
2022-08-17T08:45:58.022Z,30.70
2022-08-17T08:48:58.050Z,30.20
2022-08-17T08:51:34.359Z,30.40
2022-08-17T08:54:08.505Z,30.60
2022-08-17T08:57:19.825Z,30.90
2022-08-17T08:59:59.771Z,31.10
2022-08-17T09:02:51.154Z,30.90
2022-08-17T09:05:20.765Z,30.30
2022-08-17T09:08:13.773Z,29.90
2022-08-17T09:10:58.440Z,29.70
2022-08-17T09:13:54.416Z,29.30
2022-08-17T09:16:37.623Z,29.60
2022-08-17T09:19:30.455Z,29.70
2022-08-17T09:22:12.206Z,29.60
2022-08-17T09:24:46.766Z,29.40
2022-08-17T09:27:23.701Z,29.40
2022-08-17T09:29:58.432Z,29.10
2022-08-17T09:32:34.175Z,28.90
2022-08-17T09:35:12.094Z,28.80
2022-08-17T09:38:10.125Z,28.80
2022-08-17T09:40:49.416Z,29.10
2022-08-17T09:43:46.625Z,29.50
2022-08-17T09:46:35.978Z,29.40
2022-08-17T09:49:16.229Z,29.60
2022-08-17T09:51:52.317Z,29.60
2022-08-17T09:54:40.157Z,29.50
2022-08-17T09:57:29.150Z,29.60
2022-08-17T10:00:11.916Z,29.50
2022-08-17T10:02:54.568Z,29.40
2022-08-17T10:05:37.543Z,29.20
2022-08-17T10:08:30.599Z,29.10
2022-08-17T10:11:07.196Z,29.30
2022-08-17T10:13:52.763Z,29.30
2022-08-17T10:16:38.301Z,29.20
2022-08-17T10:19:25.376Z,29.40
2022-08-17T10:22:14.526Z,29.60
2022-08-17T10:25:26.020Z,29.80
2022-08-17T10:28:07.468Z,29.60
2022-08-17T10:30:48.811Z,29.60
2022-08-17T10:33:23.525Z,29.30
2022-08-17T10:36:31.658Z,29.50
2022-08-17T10:39:15.130Z,29.50
2022-08-17T10:41:49.487Z,29.60
2022-08-17T10:44:47.472Z,29.70
2022-08-17T10:47:19.412Z,29.50
2022-08-17T10:49:54.326Z,29.20
2022-08-17T10:52:26.247Z,29.10
2022-08-17T10:54:56.723Z,29.20
2022-08-17T10:57:34.263Z,29.10
2022-08-17T11:00:17.900Z,29.30
2022-08-17T11:02:50.153Z,29.40
2022-08-17T11:05:45.146Z,29.40
2022-08-17T11:08:33.904Z,29.30
2022-08-17T11:11:26.081Z,28.40
2022-08-17T11:14:17.120Z,28.50
2022-08-17T11:17:13.165Z,29.10
2022-08-17T11:19:44.387Z,29.50
2022-08-17T11:22:34.086Z,29.00
2022-08-17T11:25:31.927Z,29.20
2022-08-17T11:28:23.744Z,29.80
2022-08-17T11:31:00.840Z,29.90
2022-08-17T11:33:30.521Z,29.60
2022-08-17T11:36:19.965Z,29.40
2022-08-17T11:38:57.941Z,29.30
2022-08-17T11:41:44.344Z,29.60
2022-08-17T11:44:25.286Z,29.50
2022-08-17T11:47:24.745Z,29.10
2022-08-17T11:50:18.993Z,29.10
2022-08-17T11:52:50.475Z,29.50
2022-08-17T11:55:35.682Z,29.30
2022-08-17T11:58:29.093Z,29.20
2022-08-17T12:01:01.236Z,29.30
2022-08-17T12:03:31.888Z,29.40
2022-08-17T12:06:17.599Z,29.70
2022-08-17T12:08:58.882Z,29.70
2022-08-17T12:11:55.125Z,29.70
2022-08-17T12:14:51.354Z,29.50
2022-08-17T12:17:40.118Z,29.60
2022-08-17T12:20:27.926Z,29.20
2022-08-17T12:23:04.907Z,28.80
2022-08-17T12:25:45.080Z,28.70
2022-08-17T12:28:31.390Z,29.00
2022-08-17T12:31:11.815Z,29.40
2022-08-17T12:33:43.858Z,29.60
2022-08-17T12:36:15.311Z,29.70
2022-08-17T12:38:51.387Z,29.20
2022-08-17T12:41:30.269Z,29.40
2022-08-17T12:44:12.987Z,29.10
2022-08-17T12:46:54.544Z,29.10
2022-08-17T12:49:26.986Z,29.00
2022-08-17T12:52:19.686Z,29.40
2022-08-17T12:55:12.239Z,29.60
2022-08-17T12:57:39.037Z,29.70
2022-08-17T13:00:11.445Z,29.60
2022-08-17T13:03:05.968Z,29.60
2022-08-17T13:05:40.568Z,29.50
2022-08-17T13:08:21.381Z,29.50
2022-08-17T13:10:56.831Z,29.40
2022-08-17T13:13:29.960Z,29.10
2022-08-17T13:16:14.637Z,29.10
2022-08-17T13:18:45.658Z,28.90
2022-08-17T13:21:26.672Z,29.00
2022-08-17T13:24:10.782Z,28.90
2022-08-17T13:26:37.517Z,28.70
2022-08-17T13:29:08.100Z,28.60
2022-08-17T13:31:51.151Z,28.80
2022-08-17T13:35:12.197Z,28.60
2022-08-17T13:37:36.320Z,28.60
2022-08-17T13:40:09.141Z,28.50
2022-08-17T13:42:48.098Z,28.50
2022-08-17T13:45:36.022Z,28.50
2022-08-17T13:48:11.103Z,28.50
2022-08-17T13:50:56.128Z,28.30
2022-08-17T13:53:50.532Z,28.20
2022-08-17T13:56:57.744Z,28.30
2022-08-17T13:59:36.390Z,28.30
2022-08-17T14:02:21.041Z,28.50
2022-08-17T14:04:48.943Z,28.60
2022-08-17T14:07:16.137Z,28.90
2022-08-17T14:10:18.214Z,29.00
2022-08-17T14:12:45.531Z,28.90
2022-08-17T14:15:20.878Z,28.70
2022-08-17T14:17:49.204Z,28.60
2022-08-17T14:20:19.917Z,28.50
2022-08-17T14:22:52.398Z,28.50
2022-08-17T14:25:22.802Z,28.40
2022-08-17T14:27:52.765Z,28.40
2022-08-17T14:30:23.638Z,28.30
2022-08-17T14:32:52.055Z,28.10
2022-08-17T14:35:22.390Z,28.00
2022-08-17T14:37:50.413Z,27.90
2022-08-17T14:40:20.855Z,27.80
2022-08-17T14:42:48.189Z,27.80
2022-08-17T14:45:29.957Z,27.70
2022-08-17T14:48:01.552Z,27.80
2022-08-17T14:50:28.367Z,27.80
2022-08-17T14:52:59.217Z,27.90
2022-08-17T14:55:28.449Z,27.80
2022-08-17T14:57:55.243Z,27.80
2022-08-17T15:00:22.542Z,27.70
2022-08-17T15:02:56.271Z,27.60
2022-08-17T15:05:25.944Z,27.60
2022-08-17T15:07:53.834Z,27.60
2022-08-17T15:10:20.939Z,27.70
2022-08-17T15:12:48.131Z,27.50
2022-08-17T15:15:17.372Z,27.50
2022-08-17T15:17:45.922Z,27.50
2022-08-17T15:20:28.203Z,27.50
2022-08-17T15:22:57.293Z,27.60
2022-08-17T15:25:27.740Z,27.50
2022-08-17T15:27:55.885Z,27.50
2022-08-17T15:30:24.522Z,27.50
2022-08-17T15:32:55.056Z,27.40
2022-08-17T15:35:27.167Z,27.40
2022-08-17T15:37:57.136Z,27.50
2022-08-17T15:40:24.704Z,27.40
2022-08-17T15:42:51.525Z,27.40
2022-08-17T15:45:24.562Z,27.40
2022-08-17T15:47:53.778Z,27.40
2022-08-17T15:50:20.995Z,27.30
2022-08-17T15:52:53.678Z,27.10
2022-08-17T15:55:24.095Z,27.20
2022-08-17T15:57:52.260Z,27.10
2022-08-17T16:00:20.081Z,27.10
2022-08-17T16:03:44.680Z,27.00
2022-08-17T16:05:35.533Z,27.00
2022-08-17T16:08:02.437Z,27.00
2022-08-17T16:10:35.212Z,27.00
2022-08-17T16:13:03.720Z,27.00
2022-08-17T16:15:31.651Z,27.00
2022-08-17T16:17:58.965Z,27.00
2022-08-17T16:20:26.508Z,26.90
2022-08-17T16:22:54.579Z,26.90
2022-08-17T16:25:52.046Z,26.90
2022-08-17T16:28:13.697Z,26.80
2022-08-17T16:30:41.246Z,26.80
2022-08-17T16:33:11.373Z,26.80
2022-08-17T16:35:38.626Z,26.90
2022-08-17T16:38:05.493Z,26.80
2022-08-17T16:40:35.957Z,26.80
2022-08-17T16:43:04.320Z,26.60
2022-08-17T16:45:36.842Z,26.70
2022-08-17T16:48:04.488Z,26.60
2022-08-17T16:50:32.252Z,26.50
2022-08-17T16:53:18.821Z,26.50
2022-08-17T16:55:48.320Z,26.50
2022-08-17T16:58:15.754Z,26.50
2022-08-17T17:00:44.249Z,26.50
2022-08-17T17:03:19.572Z,26.50
2022-08-17T17:06:22.503Z,26.30
2022-08-17T17:08:55.881Z,26.30
2022-08-17T17:11:45.047Z,26.30
2022-08-17T17:14:18.221Z,26.40
2022-08-17T17:16:50.917Z,26.30
2022-08-17T17:19:41.306Z,26.30
2022-08-17T17:22:23.553Z,26.30
2022-08-17T17:25:22.168Z,26.20
2022-08-17T17:28:26.548Z,26.10
2022-08-17T17:31:17.517Z,26.10
2022-08-17T17:33:49.122Z,26.10
2022-08-17T17:36:38.302Z,26.10
2022-08-17T17:39:12.223Z,26.00
2022-08-17T17:42:02.308Z,25.90
2022-08-17T17:44:35.205Z,25.90
2022-08-17T17:47:03.547Z,25.90
2022-08-17T17:49:38.112Z,25.90
2022-08-17T17:52:18.397Z,25.90
2022-08-17T17:55:13.283Z,25.90
2022-08-17T17:58:04.577Z,25.90
2022-08-17T18:00:44.351Z,25.90
2022-08-17T18:03:42.426Z,25.80
2022-08-17T18:06:24.671Z,25.80
2022-08-17T18:09:19.261Z,25.80
2022-08-17T18:12:02.632Z,25.80
2022-08-17T18:15:09.903Z,25.70
2022-08-17T18:17:36.980Z,25.70
2022-08-17T18:20:07.119Z,25.60
2022-08-17T18:22:34.142Z,25.50
2022-08-17T18:25:01.049Z,25.50
2022-08-17T18:27:37.820Z,25.50
2022-08-17T18:30:13.957Z,25.40
2022-08-17T18:32:46.546Z,25.30
2022-08-17T18:35:16.138Z,25.30
2022-08-17T18:38:09.009Z,25.40
2022-08-17T18:40:37.690Z,25.30
2022-08-17T18:43:25.804Z,25.40
2022-08-17T18:45:55.429Z,25.40
2022-08-17T18:48:48.766Z,25.40
2022-08-17T18:51:39.872Z,25.40
2022-08-17T18:54:18.352Z,25.40
2022-08-17T18:56:56.715Z,25.40
2022-08-17T18:59:40.797Z,25.30
2022-08-17T19:02:23.259Z,25.20
2022-08-17T19:05:26.553Z,25.10
2022-08-17T19:07:54.610Z,25.00
2022-08-17T19:10:28.308Z,25.00
2022-08-17T19:13:39.405Z,24.90
2022-08-17T19:16:15.930Z,24.80
2022-08-17T19:19:09.398Z,24.90
2022-08-17T19:21:50.558Z,24.90
2022-08-17T19:24:21.285Z,24.80
2022-08-17T19:27:06.121Z,24.80
2022-08-17T19:29:45.294Z,24.80
2022-08-17T19:32:15.607Z,24.70
2022-08-17T19:34:44.457Z,24.60
2022-08-17T19:37:46.331Z,24.60
2022-08-17T19:40:50.571Z,24.60
2022-08-17T19:43:23.446Z,24.60
2022-08-17T19:46:31.098Z,24.60
2022-08-17T19:49:15.961Z,24.60
2022-08-17T19:51:51.099Z,24.70
2022-08-17T19:54:24.814Z,24.60
2022-08-17T19:57:09.123Z,24.70
2022-08-17T19:59:50.296Z,24.60
2022-08-17T20:02:41.574Z,24.60
2022-08-17T20:05:54.669Z,24.60
2022-08-17T20:08:31.324Z,24.40
2022-08-17T20:11:08.922Z,24.30
2022-08-17T20:13:41.001Z,24.30
2022-08-17T20:16:10.006Z,24.20
2022-08-17T20:18:52.085Z,24.20
2022-08-17T20:21:34.422Z,24.10
2022-08-17T20:24:23.178Z,24.10
2022-08-17T20:27:09.468Z,24.20
2022-08-17T20:29:55.319Z,24.10
2022-08-17T20:32:26.462Z,24.00
2022-08-17T20:35:18.194Z,24.10
2022-08-17T20:37:57.520Z,24.00
2022-08-17T20:40:28.464Z,24.00
2022-08-17T20:42:56.342Z,23.90
2022-08-17T20:45:26.512Z,23.90
2022-08-17T20:48:35.715Z,23.80
2022-08-17T20:50:59.148Z,23.80
2022-08-17T20:53:48.004Z,23.70
2022-08-17T20:56:49.300Z,23.70
2022-08-17T20:59:25.525Z,23.70
2022-08-17T21:02:18.801Z,23.70
2022-08-17T21:04:54.486Z,23.80
2022-08-17T21:07:39.987Z,23.80
2022-08-17T21:10:32.677Z,23.70
2022-08-17T21:13:24.444Z,23.70
2022-08-17T21:16:39.628Z,23.70
2022-08-17T21:19:18.119Z,23.70
2022-08-17T21:21:51.615Z,23.50
2022-08-17T21:24:21.435Z,23.50
2022-08-17T21:26:55.509Z,23.50
2022-08-17T21:29:31.889Z,23.50
2022-08-17T21:31:59.525Z,23.50
2022-08-17T21:34:30.656Z,23.50
2022-08-17T21:37:19.917Z,23.50
2022-08-17T21:40:00.400Z,23.40
2022-08-17T21:42:35.239Z,23.50
2022-08-17T21:45:20.950Z,23.40
2022-08-17T21:48:08.150Z,23.40
2022-08-17T21:50:36.003Z,23.30
2022-08-17T21:53:04.249Z,23.20
2022-08-17T21:55:34.010Z,23.20
2022-08-17T21:58:14.818Z,23.30
2022-08-17T22:00:44.766Z,23.20
2022-08-17T22:03:24.231Z,23.10
2022-08-17T22:05:51.583Z,23.10
2022-08-17T22:08:22.248Z,23.00
2022-08-17T22:10:51.200Z,23.00
2022-08-17T22:13:18.036Z,23.00
2022-08-17T22:15:49.522Z,22.90
2022-08-17T22:18:26.928Z,22.90
2022-08-17T22:20:56.071Z,22.90
2022-08-17T22:23:49.205Z,22.90
2022-08-17T22:26:17.872Z,22.90
2022-08-17T22:28:52.448Z,22.90
2022-08-17T22:31:22.060Z,22.80
2022-08-17T22:34:02.883Z,22.80
2022-08-17T22:36:37.374Z,22.80
2022-08-17T22:39:08.379Z,22.80
2022-08-17T22:41:38.198Z,22.70
2022-08-17T22:44:26.035Z,22.70
2022-08-17T22:47:11.781Z,22.70
2022-08-17T22:49:53.991Z,22.60
2022-08-17T22:52:34.952Z,22.60
2022-08-17T22:55:35.954Z,22.60
2022-08-17T22:58:29.885Z,22.60
2022-08-17T23:00:56.904Z,22.60
2022-08-17T23:03:26.254Z,22.50
2022-08-17T23:06:08.342Z,22.50
2022-08-17T23:08:48.922Z,22.50
2022-08-17T23:11:16.027Z,22.50
2022-08-17T23:13:42.996Z,22.50
2022-08-17T23:16:09.975Z,22.40
2022-08-17T23:18:37.512Z,22.40
2022-08-17T23:21:05.049Z,22.40
2022-08-17T23:23:31.851Z,22.40
2022-08-17T23:25:58.692Z,22.40
2022-08-17T23:28:25.495Z,22.40
2022-08-17T23:30:52.359Z,22.40
2022-08-17T23:33:27.370Z,22.40
2022-08-17T23:35:54.199Z,22.20
2022-08-17T23:38:21.905Z,22.30
2022-08-17T23:40:48.816Z,22.20
2022-08-17T23:43:24.781Z,22.10
2022-08-17T23:45:54.230Z,22.20
2022-08-17T23:48:28.512Z,22.10
2022-08-17T23:51:04.270Z,22.10
2022-08-17T23:53:34.931Z,22.10
2022-08-17T23:56:04.000Z,22.00
2022-08-17T23:58:38.654Z,22.00
